Dades meteomassalio
Diari Summary for Febrer 18, 2018 Units:  English    Metric   Both
« Previous Day
Next Day »
Diari Semanal Mensual Anual Personalitzat
  Maxima: Minima: Mijana:
Temperatura: TemperatureC °F 3.9 °F 8.8 °F
Rosada: DewpointC °F 0.2 °F 3.1 °F
Humitat: Humidity % 52 % 68 %
Velocitat del vent: WindSpeedKMH mph 0.0 mph 21.2 mph
Racha vent: WindSpeedGustKMH mph - -
Vent:- - WNW
Pressio: PressurehPa in 1022.6 in -
Pluja: 0.0 in    
Historical Graphs
 
 
Tabular Data for Febrer 18, 2018
Time Temperature Dew Point Pressure Wind Wind Speed Wind Gust Humidity Rainfall Rate (Hourly) solar Conditions
TemperatureC °F DewpointC °F PressurehPa in Calm     Humidity % HourlyPrecipMM in SolarRadiationWatts/m^2 W/m2 Conditions
00:00 7.2 °F 2.3 °F 1027.3 in West 18.5 mph 18.5 mph 71 % 0.0 in 0.0 W/m2 RA
00:05 7.2 °F 2.3 °F 1027.7 in West 18.5 mph 18.5 mph 71 % 0.0 in 0.0 W/m2 CLR
00:10 6.7 °F 1.8 °F 1027.3 in WNW 16.7 mph 16.7 mph 71 % 0.0 in 0.0 W/m2 CLR
00:15 6.7 °F 1.8 °F 1027.3 in West 16.1 mph 16.1 mph 71 % 0.0 in 0.0 W/m2 CLR
00:20 6.7 °F 1.8 °F 1027.3 in NW 24.1 mph 24.1 mph 71 % 0.0 in 0.0 W/m2 CLR
00:25 6.7 °F 1.8 °F 1027.3 in NW 27.8 mph 27.8 mph 71 % 0.0 in 0.0 W/m2 CLR
00:30 6.7 °F 1.8 °F 1027.3 in WNW 29.6 mph 29.6 mph 71 % 0.0 in 0.0 W/m2 CLR
00:35 6.7 °F 1.8 °F 1027.3 in NW 22.2 mph 22.2 mph 71 % 0.0 in 0.0 W/m2 CLR
00:40 6.7 °F 1.8 °F 1027.3 in WNW 22.2 mph 22.2 mph 71 % 0.0 in 0.0 W/m2 CLR
00:45 6.7 °F 1.8 °F 1027.3 in NW 18.5 mph 18.5 mph 71 % 0.0 in 0.0 W/m2 CLR
00:50 6.7 °F 1.8 °F 1027.3 in NW 19.3 mph 19.3 mph 71 % 0.0 in 0.0 W/m2 CLR
00:55 6.7 °F 1.8 °F 1027.3 in WNW 27.8 mph 27.8 mph 71 % 0.0 in 0.0 W/m2 CLR
01:00 6.7 °F 1.8 °F 1027.3 in NW 20.4 mph 20.4 mph 71 % 0.0 in 0.0 W/m2 CLR
01:05 6.7 °F 1.8 °F 1027.3 in NW 22.2 mph 22.2 mph 71 % 0.0 in 0.0 W/m2 CLR
01:10 6.7 °F 1.8 °F 1027.3 in NW 24.1 mph 24.1 mph 71 % 0.0 in 0.0 W/m2 CLR
01:15 6.1 °F 1.1 °F 1027.3 in WNW 24.1 mph 24.1 mph 70 % 0.0 in 0.0 W/m2 CLR
01:20 6.7 °F 1.6 °F 1027.3 in WNW 25.9 mph 25.9 mph 70 % 0.0 in 0.0 W/m2 CLR
01:25 6.1 °F 1.1 °F 1027.3 in WNW 20.9 mph 20.9 mph 70 % 0.0 in 0.0 W/m2 CLR
01:30 6.1 °F 1.1 °F 1027.3 in West 22.2 mph 22.2 mph 70 % 0.0 in 0.0 W/m2 CLR
01:35 6.1 °F 1.1 °F 1027.3 in WNW 18.5 mph 18.5 mph 70 % 0.0 in 0.0 W/m2 CLR
01:40 6.1 °F 1.2 °F 1027.3 in WNW 18.5 mph 18.5 mph 71 % 0.0 in 0.0 W/m2 CLR
01:45 6.1 °F 1.2 °F 1027.3 in WNW 18.5 mph 18.5 mph 71 % 0.0 in 0.0 W/m2 CLR
01:50 6.1 °F 1.2 °F 1027.3 in WNW 16.1 mph 16.1 mph 71 % 0.0 in 0.0 W/m2 CLR
01:56 6.1 °F 1.2 °F 1027.3 in WNW 20.4 mph 20.4 mph 71 % 0.0 in 0.0 W/m2 CLR
02:01 6.1 °F 1.2 °F 1027.3 in WNW 27.8 mph 27.8 mph 71 % 0.0 in 0.0 W/m2 CLR
02:06 6.1 °F 1.2 °F 1027.0 in WNW 27.8 mph 27.8 mph 71 % 0.0 in 0.0 W/m2 CLR
02:11 6.1 °F 1.2 °F 1027.0 in WNW 27.8 mph 27.8 mph 71 % 0.0 in 0.0 W/m2 CLR
02:16 6.1 °F 1.1 °F 1027.0 in WNW 18.5 mph 18.5 mph 70 % 0.0 in 0.0 W/m2 CLR
02:21 6.1 °F 1.1 °F 1027.0 in WNW 24.1 mph 24.1 mph 70 % 0.0 in 0.0 W/m2 CLR
02:26 6.1 °F 1.1 °F 1027.0 in West 13.0 mph 13.0 mph 70 % 0.0 in 0.0 W/m2 CLR
02:31 6.1 °F 1.2 °F 1027.0 in WNW 20.9 mph 20.9 mph 71 % 0.0 in 0.0 W/m2 CLR
02:36 6.1 °F 1.2 °F 1027.0 in NW 22.2 mph 22.2 mph 71 % 0.0 in 0.0 W/m2 CLR
02:41 6.1 °F 1.2 °F 1027.0 in WNW 16.7 mph 16.7 mph 71 % 0.0 in 0.0 W/m2 CLR
02:46 6.1 °F 1.2 °F 1027.0 in WNW 18.5 mph 18.5 mph 71 % 0.0 in 0.0 W/m2 CLR
02:51 6.1 °F 1.2 °F 1027.0 in WNW 16.7 mph 16.7 mph 71 % 0.0 in 0.0 W/m2 CLR
02:57 6.1 °F 1.2 °F 1027.0 in NW 25.9 mph 25.9 mph 71 % 0.0 in 0.0 W/m2 CLR
03:02 6.1 °F 1.1 °F 1027.0 in West 19.3 mph 19.3 mph 70 % 0.0 in 0.0 W/m2 CLR
03:07 5.6 °F 0.7 °F 1027.0 in NW 18.5 mph 18.5 mph 71 % 0.0 in 0.0 W/m2 CLR
03:12 5.6 °F 0.5 °F 1026.6 in WNW 16.7 mph 16.7 mph 70 % 0.0 in 0.0 W/m2 CLR
03:17 5.6 °F 0.7 °F 1026.6 in WNW 18.5 mph 18.5 mph 71 % 0.0 in 0.0 W/m2 CLR
03:22 5.6 °F 0.7 °F 1026.6 in West 13.0 mph 13.0 mph 71 % 0.0 in 0.0 W/m2 CLR
03:27 5.6 °F 0.9 °F 1026.6 in WNW 22.2 mph 22.2 mph 72 % 0.0 in 0.0 W/m2 CLR
03:32 5.6 °F 0.9 °F 1026.6 in NW 27.8 mph 27.8 mph 72 % 0.0 in 0.0 W/m2 CLR
03:37 5.6 °F 0.9 °F 1026.6 in West 16.7 mph 16.7 mph 72 % 0.0 in 0.0 W/m2 CLR
03:42 5.6 °F 0.9 °F 1026.6 in West 18.5 mph 18.5 mph 72 % 0.0 in 0.0 W/m2 CLR
03:47 5.6 °F 0.9 °F 1026.6 in West 18.5 mph 18.5 mph 72 % 0.0 in 0.0 W/m2 CLR
03:52 5.6 °F 1.1 °F 1026.6 in WNW 18.5 mph 18.5 mph 73 % 0.0 in 0.0 W/m2 CLR
03:57 5.6 °F 1.1 °F 1026.6 in WNW 24.1 mph 24.1 mph 73 % 0.0 in 0.0 W/m2 CLR
04:02 5.6 °F 1.1 °F 1026.3 in WNW 24.1 mph 24.1 mph 73 % 0.0 in 0.0 W/m2 CLR
04:07 5.6 °F 1.1 °F 1026.3 in WNW 24.1 mph 24.1 mph 73 % 0.0 in 0.0 W/m2 CLR
04:12 5.6 °F 1.3 °F 1026.3 in NW 19.3 mph 19.3 mph 74 % 0.0 in 0.0 W/m2 CLR
04:17 5.6 °F 1.1 °F 1026.3 in WNW 22.2 mph 22.2 mph 73 % 0.0 in 0.0 W/m2 CLR
04:22 5.6 °F 1.1 °F 1026.3 in WNW 27.8 mph 27.8 mph 73 % 0.0 in 0.0 W/m2 CLR
04:27 5.6 °F 1.1 °F 1026.3 in WNW 27.8 mph 27.8 mph 73 % 0.0 in 0.0 W/m2 CLR
04:32 5.6 °F 1.1 °F 1026.3 in WNW 31.5 mph 31.5 mph 73 % 0.0 in 0.0 W/m2 CLR
04:37 5.6 °F 1.3 °F 1026.3 in West 18.5 mph 18.5 mph 74 % 0.0 in 0.0 W/m2 CLR
04:42 5.6 °F 1.3 °F 1026.3 in NW 24.1 mph 24.1 mph 74 % 0.0 in 0.0 W/m2 CLR
04:47 5.6 °F 1.3 °F 1026.3 in West 18.5 mph 18.5 mph 74 % 0.0 in 0.0 W/m2 CLR
04:52 5.6 °F 1.3 °F 1026.3 in WNW 24.1 mph 24.1 mph 74 % 0.0 in 0.0 W/m2 CLR
04:57 5.6 °F 1.3 °F 1026.3 in WNW 20.9 mph 20.9 mph 74 % 0.0 in 0.0 W/m2 CLR
05:02 6.1 °F 1.8 °F 1026.3 in WNW 18.5 mph 18.5 mph 74 % 0.0 in 0.0 W/m2 CLR
05:07 6.1 °F 1.8 °F 1026.3 in West 22.5 mph 22.5 mph 74 % 0.0 in 0.0 W/m2 CLR
05:12 6.1 °F 1.8 °F 1026.3 in WNW 20.4 mph 20.4 mph 74 % 0.0 in 0.0 W/m2 CLR
05:17 6.1 °F 1.8 °F 1026.3 in WNW 16.7 mph 16.7 mph 74 % 0.0 in 0.0 W/m2 CLR
05:22 6.1 °F 1.8 °F 1026.3 in WNW 16.7 mph 16.7 mph 74 % 0.0 in 0.0 W/m2 CLR
05:27 6.1 °F 1.8 °F 1026.3 in West 18.5 mph 18.5 mph 74 % 0.0 in 0.0 W/m2 CLR
05:32 6.1 °F 1.8 °F 1026.3 in NNW 14.5 mph 14.5 mph 74 % 0.0 in 0.0 W/m2 CLR
05:37 6.1 °F 2.0 °F 1026.3 in West 24.1 mph 24.1 mph 75 % 0.0 in 0.0 W/m2 CLR
05:42 6.1 °F 2.0 °F 1026.3 in NW 20.4 mph 20.4 mph 75 % 0.0 in 0.0 W/m2 CLR
05:47 5.6 °F 1.4 °F 1026.3 in NW 14.8 mph 14.8 mph 75 % 0.0 in 0.0 W/m2 CLR
05:52 5.6 °F 1.4 °F 1026.3 in WNW 18.5 mph 18.5 mph 75 % 0.0 in 0.0 W/m2 CLR
05:57 5.6 °F 1.4 °F 1026.3 in WNW 18.5 mph 18.5 mph 75 % 0.0 in 0.0 W/m2 CLR
06:02 5.6 °F 1.7 °F 1026.3 in NW 25.9 mph 25.9 mph 76 % 0.0 in 0.0 W/m2 CLR
06:07 5.6 °F 1.7 °F 1026.3 in NW 29.6 mph 29.6 mph 76 % 0.0 in 0.0 W/m2 CLR
06:12 5.6 °F 1.7 °F 1026.3 in NNW 20.4 mph 20.4 mph 76 % 0.0 in 0.0 W/m2 CLR
06:17 5.6 °F 1.7 °F 1026.3 in NW 19.3 mph 19.5 mph 76 % 0.0 in 0.0 W/m2 CLR
06:22 5.6 °F 1.7 °F 1026.3 in WNW 16.7 mph 16.7 mph 76 % 0.0 in 0.0 W/m2 CLR
06:27 5.6 °F 1.7 °F 1026.6 in West 16.7 mph 16.7 mph 76 % 0.0 in 0.0 W/m2 CLR
06:32 5.6 °F 1.7 °F 1026.6 in WNW 9.3 mph 9.3 mph 76 % 0.0 in 0.0 W/m2 CLR
06:37 5.0 °F 1.1 °F 1026.3 in WNW 7.4 mph 7.4 mph 76 % 0.0 in 0.0 W/m2 CLR
06:42 5.0 °F 1.3 °F 1026.3 in West 13.0 mph 13.0 mph 77 % 0.0 in 0.0 W/m2 CLR
06:47 4.4 °F 0.8 °F 1026.3 in WNW 16.7 mph 16.7 mph 77 % 0.0 in 0.0 W/m2 CLR
06:52 4.4 °F 0.8 °F 1026.3 in WNW 14.8 mph 14.8 mph 77 % 0.0 in 0.0 W/m2 CLR
06:57 4.4 °F 0.8 °F 1026.3 in West 14.8 mph 14.8 mph 77 % 0.0 in 0.0 W/m2 CLR
07:03 4.4 °F 0.8 °F 1026.3 in WNW 14.8 mph 14.8 mph 77 % 0.0 in 0.0 W/m2 CLR
07:08 4.4 °F 0.8 °F 1026.3 in NW 14.8 mph 14.8 mph 77 % 0.0 in 0.0 W/m2 CLR
07:13 4.4 °F 0.8 °F 1026.3 in WNW 12.9 mph 12.9 mph 77 % 0.0 in 0.0 W/m2 CLR
07:18 5.0 °F 1.5 °F 1026.3 in West 16.7 mph 16.7 mph 78 % 0.0 in 0.0 W/m2 CLR
07:23 4.4 °F 0.9 °F 1026.3 in NW 16.1 mph 16.1 mph 78 % 0.0 in 0.0 W/m2 CLR
07:28 4.4 °F 0.9 °F 1026.6 in NW 16.7 mph 16.7 mph 78 % 0.0 in 0.0 W/m2 CLR
07:33 4.4 °F 0.8 °F 1026.6 in NW 16.7 mph 16.7 mph 77 % 0.0 in 0.0 W/m2 CLR
07:38 4.4 °F 0.8 °F 1026.6 in WNW 16.7 mph 16.7 mph 77 % 0.0 in 0.0 W/m2 CLR
07:43 4.4 °F 0.9 °F 1026.6 in WNW 18.5 mph 18.5 mph 78 % 0.0 in 0.0 W/m2 OVC
07:48 4.4 °F 0.9 °F 1026.6 in West 18.5 mph 18.5 mph 78 % 0.0 in 0.0 W/m2 OVC
07:53 4.4 °F 0.9 °F 1026.6 in WNW 11.1 mph 11.1 mph 78 % 0.0 in 5.0 W/m2 OVC
07:58 4.4 °F 0.9 °F 1026.6 in WNW 11.1 mph 11.1 mph 78 % 0.0 in 9.0 W/m2 BKN
08:03 4.4 °F 0.9 °F 1026.6 in NW 18.5 mph 18.5 mph 78 % 0.0 in 11.0 W/m2 BKN
08:08 4.4 °F 0.9 °F 1027.0 in WNW 14.5 mph 14.5 mph 78 % 0.0 in 14.0 W/m2 BKN
08:13 3.9 °F 0.4 °F 1027.0 in WNW 5.6 mph 5.6 mph 78 % 0.0 in 16.0 W/m2 BKN
08:18 3.9 °F 0.4 °F 1027.0 in WNW 13.0 mph 13.0 mph 78 % 0.0 in 19.0 W/m2 BKN
08:23 3.9 °F 0.4 °F 1027.0 in NW 13.0 mph 13.0 mph 78 % 0.0 in 26.0 W/m2 BKN
08:28 3.9 °F 0.2 °F 1027.0 in WNW 18.5 mph 18.5 mph 77 % 0.0 in 35.0 W/m2 BKN
08:33 4.4 °F 0.8 °F 1027.0 in West 5.6 mph 5.6 mph 77 % 0.0 in 44.0 W/m2 BKN
08:38 5.0 °F 1.3 °F 1027.0 in Calm   0.3 mph 77 % 0.0 in 56.0 W/m2 SCT
08:43 5.0 °F 1.3 °F 1027.0 in WNW 13.0 mph 13.0 mph 77 % 0.0 in 76.0 W/m2 FEW
08:48 5.0 °F 1.1 °F 1027.0 in NW 16.7 mph 16.7 mph 76 % 0.0 in 90.0 W/m2 CLR
08:53 5.6 °F 1.7 °F 1027.0 in WNW 14.8 mph 14.8 mph 76 % 0.0 in 109.0 W/m2 CLR
08:58 5.6 °F 1.4 °F 1027.0 in WNW 20.4 mph 20.4 mph 75 % 0.0 in 125.0 W/m2 CLR
09:03 5.6 °F 1.4 °F 1027.0 in WNW 18.5 mph 18.5 mph 75 % 0.0 in 120.0 W/m2 CLR
09:08 6.1 °F 1.8 °F 1027.0 in WNW 24.1 mph 24.1 mph 74 % 0.0 in 160.0 W/m2 CLR
09:13 6.1 °F 1.8 °F 1027.0 in NW 22.2 mph 22.2 mph 74 % 0.0 in 134.0 W/m2 CLR
09:18 6.1 °F 1.6 °F 1027.0 in West 25.9 mph 25.9 mph 73 % 0.0 in 199.0 W/m2 CLR
09:23 6.7 °F 2.2 °F 1027.0 in NW 22.2 mph 22.2 mph 73 % 0.0 in 214.0 W/m2 CLR
09:28 6.7 °F 2.0 °F 1027.0 in WNW 18.5 mph 18.5 mph 72 % 0.0 in 232.0 W/m2 CLR
09:33 6.7 °F 2.2 °F 1027.0 in WNW 22.2 mph 22.2 mph 73 % 0.0 in 248.0 W/m2 CLR
09:38 6.7 °F 2.0 °F 1027.0 in WNW 20.4 mph 20.4 mph 72 % 0.0 in 267.0 W/m2 CLR
09:43 6.7 °F 2.0 °F 1027.0 in NW 20.4 mph 20.4 mph 72 % 0.0 in 283.0 W/m2 CLR
09:48 7.2 °F 2.5 °F 1027.3 in NNW 25.7 mph 25.7 mph 72 % 0.0 in 320.0 W/m2 CLR
09:53 7.2 °F 2.5 °F 1027.3 in WNW 22.2 mph 22.2 mph 72 % 0.0 in 334.0 W/m2 CLR
09:58 7.2 °F 2.3 °F 1027.3 in NW 22.2 mph 22.2 mph 71 % 0.0 in 346.0 W/m2 CLR
10:03 7.8 °F 2.8 °F 1027.0 in West 22.2 mph 22.2 mph 71 % 0.0 in 359.0 W/m2 CLR
10:08 7.8 °F 2.8 °F 1027.0 in NW 31.5 mph 31.5 mph 71 % 0.0 in 376.0 W/m2 CLR
10:14 7.8 °F 2.8 °F 1027.0 in NNW 29.6 mph 29.6 mph 71 % 0.0 in 371.0 W/m2 CLR
10:19 7.8 °F 2.8 °F 1027.0 in NW 29.6 mph 29.6 mph 71 % 0.0 in 387.0 W/m2 CLR
10:24 8.3 °F 3.4 °F 1027.3 in NW 27.8 mph 27.8 mph 71 % 0.0 in 415.0 W/m2 CLR
10:29 8.3 °F 3.2 °F 1027.0 in NNW 27.8 mph 27.8 mph 70 % 0.0 in 425.0 W/m2 CLR
10:34 8.3 °F 3.2 °F 1027.3 in NW 24.1 mph 24.1 mph 70 % 0.0 in 452.0 W/m2 CLR
10:39 8.3 °F 3.0 °F 1027.0 in NW 29.6 mph 29.6 mph 69 % 0.0 in 464.0 W/m2 CLR
10:44 8.3 °F 3.0 °F 1027.0 in NNW 27.8 mph 27.8 mph 69 % 0.0 in 397.0 W/m2 CLR
10:49 8.9 °F 3.5 °F 1027.0 in NNW 33.3 mph 33.3 mph 69 % 0.0 in 536.0 W/m2 CLR
10:54 8.9 °F 3.3 °F 1027.0 in WNW 18.5 mph 18.5 mph 68 % 0.0 in 568.0 W/m2 CLR
10:59 9.4 °F 3.8 °F 1027.0 in NW 24.1 mph 24.1 mph 68 % 0.0 in 545.0 W/m2 CLR
11:04 9.4 °F 3.8 °F 1027.0 in NNW 25.9 mph 25.9 mph 68 % 0.0 in 515.0 W/m2 CLR
11:09 9.4 °F 3.8 °F 1027.0 in NW 22.2 mph 22.2 mph 68 % 0.0 in 563.0 W/m2 CLR
11:14 9.4 °F 3.6 °F 1027.0 in WNW 25.9 mph 25.9 mph 67 % 0.0 in 162.0 W/m2 CLR
11:19 9.4 °F 3.6 °F 1027.0 in NW 27.8 mph 27.8 mph 67 % 0.0 in 162.0 W/m2 CLR
11:24 8.9 °F 2.9 °F 1026.6 in WNW 20.4 mph 20.4 mph 66 % 0.0 in 330.0 W/m2 CLR
11:29 8.9 °F 3.1 °F 1026.6 in NNW 24.1 mph 24.1 mph 67 % 0.0 in 392.0 W/m2 CLR
11:34 10.0 °F 4.2 °F 1026.6 in NNW 27.8 mph 27.8 mph 67 % 0.0 in 587.0 W/m2 CLR
11:39 10.0 °F 3.7 °F 1026.6 in NW 25.9 mph 25.9 mph 65 % 0.0 in 350.0 W/m2 CLR
11:44 10.0 °F 3.7 °F 1026.6 in NW 27.8 mph 27.8 mph 65 % 0.0 in 564.0 W/m2 CLR
11:49 10.6 °F 4.2 °F 1026.6 in NW 24.1 mph 24.1 mph 65 % 0.0 in 571.0 W/m2 CLR
11:54 10.6 °F 3.8 °F 1026.6 in NNW 25.9 mph 25.9 mph 63 % 0.0 in 575.0 W/m2 CLR
11:59 10.6 °F 3.6 °F 1026.6 in North 25.9 mph 25.9 mph 62 % 0.0 in 577.0 W/m2 CLR
12:04 11.1 °F 4.1 °F 1026.3 in NW 31.5 mph 31.5 mph 62 % 0.0 in 584.0 W/m2 CLR
12:09 11.1 °F 3.9 °F 1026.3 in NNW 31.5 mph 31.5 mph 61 % 0.0 in 589.0 W/m2 CLR
12:14 11.7 °F 4.4 °F 1026.3 in NNW 25.7 mph 25.7 mph 61 % 0.0 in 596.0 W/m2 CLR
12:19 11.7 °F 4.2 °F 1026.3 in NNW 24.1 mph 24.1 mph 60 % 0.0 in 599.0 W/m2 CLR
12:24 11.1 °F 3.9 °F 1026.3 in NW 24.1 mph 24.1 mph 61 % 0.0 in 612.0 W/m2 CLR
12:29 11.7 °F 4.4 °F 1026.3 in NNW 29.6 mph 29.6 mph 61 % 0.0 in 592.0 W/m2 CLR
12:34 11.7 °F 4.4 °F 1026.0 in NNW 31.5 mph 31.5 mph 61 % 0.0 in 578.0 W/m2 CLR
12:39 12.2 °F 4.4 °F 1026.0 in NNW 33.3 mph 33.3 mph 59 % 0.0 in 617.0 W/m2 CLR
12:44 11.7 °F 3.9 °F 1026.0 in NNW 22.2 mph 22.2 mph 59 % 0.0 in 622.0 W/m2 CLR
12:49 12.2 °F 3.9 °F 1026.0 in WNW 33.3 mph 33.3 mph 57 % 0.0 in 624.0 W/m2 CLR
12:54 11.7 °F 4.2 °F 1026.0 in NW 20.9 mph 20.9 mph 60 % 0.0 in 626.0 W/m2 CLR
12:59 12.8 °F 4.7 °F 1025.6 in NW 31.5 mph 31.5 mph 58 % 0.0 in 629.0 W/m2 CLR
13:04 12.2 °F 3.7 °F 1025.6 in NW 33.3 mph 33.3 mph 56 % 0.0 in 629.0 W/m2 CLR
13:09 12.2 °F 3.7 °F 1025.6 in NW 42.6 mph 42.6 mph 56 % 0.0 in 631.0 W/m2 CLR
13:14 12.8 °F 4.2 °F 1025.3 in WNW 20.4 mph 20.4 mph 56 % 0.0 in 635.0 W/m2 CLR
13:19 12.8 °F 4.7 °F 1025.3 in NNW 29.6 mph 29.6 mph 58 % 0.0 in 636.0 W/m2 CLR
13:24 12.8 °F 4.2 °F 1025.3 in NNW 42.6 mph 42.6 mph 56 % 0.0 in 657.0 W/m2 CLR
13:29 12.8 °F 4.4 °F 1025.3 in NNW 24.1 mph 24.1 mph 57 % 0.0 in 619.0 W/m2 CLR
13:34 12.8 °F 3.7 °F 1024.9 in ESE 31.5 mph 31.5 mph 54 % 0.0 in 584.0 W/m2 CLR
13:39 12.8 °F 3.9 °F 1025.3 in NNW 20.9 mph 20.9 mph 55 % 0.0 in 638.0 W/m2 CLR
13:44 12.8 °F 3.7 °F 1024.9 in NNW 31.5 mph 31.5 mph 54 % 0.0 in 640.0 W/m2 CLR
13:49 12.8 °F 3.9 °F 1024.9 in North 18.5 mph 18.5 mph 55 % 0.0 in 631.0 W/m2 CLR
13:54 13.3 °F 4.2 °F 1024.9 in NNW 33.3 mph 33.3 mph 54 % 0.0 in 622.0 W/m2 CLR
13:59 12.8 °F 3.7 °F 1024.9 in North 22.5 mph 22.5 mph 54 % 0.0 in 608.0 W/m2 CLR
14:04 12.8 °F 3.7 °F 1024.6 in North 25.9 mph 25.9 mph 54 % 0.0 in 629.0 W/m2 CLR
14:09 13.3 °F 4.2 °F 1024.6 in NW 31.5 mph 31.5 mph 54 % 0.0 in 580.0 W/m2 CLR
14:14 13.3 °F 4.2 °F 1024.6 in NW 27.8 mph 27.8 mph 54 % 0.0 in 564.0 W/m2 CLR
14:19 13.3 °F 3.9 °F 1024.3 in NW 24.1 mph 24.1 mph 53 % 0.0 in 613.0 W/m2 CLR
14:24 13.3 °F 3.9 °F 1024.3 in NW 31.5 mph 31.5 mph 53 % 0.0 in 438.0 W/m2 CLR
14:29 13.3 °F 4.2 °F 1024.3 in North 29.6 mph 29.6 mph 54 % 0.0 in 570.0 W/m2 CLR
14:34 13.3 °F 4.2 °F 1024.3 in NNW 31.5 mph 31.5 mph 54 % 0.0 in 570.0 W/m2 CLR
14:39 13.9 °F 4.7 °F 1024.3 in NW 22.2 mph 22.2 mph 54 % 0.0 in 554.0 W/m2 CLR
14:44 13.3 °F 3.9 °F 1024.3 in WNW 25.9 mph 25.9 mph 53 % 0.0 in 519.0 W/m2 CLR
14:49 13.3 °F 4.2 °F 1024.3 in WNW 25.9 mph 25.9 mph 54 % 0.0 in 573.0 W/m2 CLR
14:54 13.3 °F 4.2 °F 1024.3 in NNW 29.6 mph 29.6 mph 54 % 0.0 in 570.0 W/m2 CLR
14:59 13.9 °F 4.4 °F 1024.3 in NW 29.6 mph 29.6 mph 53 % 0.0 in 577.0 W/m2 CLR
15:04 13.9 °F 4.2 °F 1023.9 in North 25.9 mph 25.9 mph 52 % 0.0 in 547.0 W/m2 CLR
15:09 13.9 °F 4.2 °F 1023.9 in NW 18.5 mph 18.5 mph 52 % 0.0 in 536.0 W/m2 CLR
15:14 13.9 °F 4.2 °F 1023.9 in NNW 27.8 mph 27.8 mph 52 % 0.0 in 563.0 W/m2 CLR
15:19 13.9 °F 4.2 °F 1023.9 in NNW 24.1 mph 24.1 mph 52 % 0.0 in 587.0 W/m2 CLR
15:24 13.9 °F 4.4 °F 1023.9 in NW 14.8 mph 14.8 mph 53 % 0.0 in 415.0 W/m2 CLR
15:29 13.3 °F 3.7 °F 1023.6 in NW 24.1 mph 24.1 mph 52 % 0.0 in 355.0 W/m2 CLR
15:34 13.3 °F 3.7 °F 1023.6 in WNW 20.4 mph 20.4 mph 52 % 0.0 in 432.0 W/m2 CLR
15:39 13.3 °F 3.7 °F 1023.6 in North 18.5 mph 18.5 mph 52 % 0.0 in 288.0 W/m2 CLR
15:44 13.3 °F 3.9 °F 1023.6 in NNW 20.9 mph 20.9 mph 53 % 0.0 in 294.0 W/m2 CLR
15:49 13.3 °F 3.9 °F 1023.6 in NNW 27.8 mph 27.8 mph 53 % 0.0 in 388.0 W/m2 CLR
16:00 13.3 °F 3.7 °F 1023.6 in NW 22.2 mph 22.2 mph 52 % 0.0 in 216.0 W/m2 CLR
16:05 13.3 °F 3.9 °F 1023.6 in NW 27.8 mph 27.8 mph 53 % 0.0 in 214.0 W/m2 CLR
16:10 12.8 °F 3.2 °F 1023.6 in NW 29.6 mph 29.6 mph 52 % 0.0 in 174.0 W/m2 CLR
16:15 12.8 °F 3.2 °F 1023.6 in NW 27.8 mph 27.8 mph 52 % 0.0 in 165.0 W/m2 CLR
16:20 12.2 °F 2.9 °F 1023.6 in NW 17.7 mph 17.7 mph 53 % 0.0 in 158.0 W/m2 CLR
16:25 12.2 °F 2.9 °F 1023.6 in NW 22.2 mph 22.2 mph 53 % 0.0 in 195.0 W/m2 CLR
16:30 12.2 °F 3.2 °F 1023.6 in NW 22.2 mph 22.2 mph 54 % 0.0 in 179.0 W/m2 CLR
16:35 12.2 °F 2.9 °F 1023.6 in WNW 20.4 mph 20.4 mph 53 % 0.0 in 271.0 W/m2 CLR
16:40 12.2 °F 2.9 °F 1023.6 in NW 24.1 mph 24.1 mph 53 % 0.0 in 239.0 W/m2 CLR
16:45 12.2 °F 2.9 °F 1023.6 in NNW 24.1 mph 24.1 mph 53 % 0.0 in 149.0 W/m2 CLR
16:50 12.2 °F 3.2 °F 1023.6 in NW 18.5 mph 18.5 mph 54 % 0.0 in 155.0 W/m2 CLR
16:55 12.2 °F 3.4 °F 1023.2 in NW 16.7 mph 16.7 mph 55 % 0.0 in 255.0 W/m2 CLR
17:00 12.8 °F 3.9 °F 1023.2 in NW 16.7 mph 16.7 mph 55 % 0.0 in 225.0 W/m2 CLR
17:05 12.8 °F 3.7 °F 1023.2 in NNW 22.5 mph 22.5 mph 54 % 0.0 in 135.0 W/m2 CLR
17:10 12.8 °F 3.9 °F 1023.6 in NW 27.8 mph 27.8 mph 55 % 0.0 in 111.0 W/m2 CLR
17:15 12.2 °F 3.9 °F 1023.6 in NNW 18.5 mph 18.5 mph 57 % 0.0 in 114.0 W/m2 CLR
17:20 11.7 °F 3.7 °F 1023.6 in NW 25.9 mph 25.9 mph 58 % 0.0 in 163.0 W/m2 CLR
17:25 11.7 °F 3.7 °F 1023.2 in NNW 24.1 mph 24.1 mph 58 % 0.0 in 114.0 W/m2 CLR
17:30 11.7 °F 3.7 °F 1023.2 in NW 24.1 mph 24.1 mph 58 % 0.0 in 86.0 W/m2 CLR
17:35 11.7 °F 3.9 °F 1023.2 in NNW 20.9 mph 20.9 mph 59 % 0.0 in 76.0 W/m2 CLR
17:40 11.7 °F 4.2 °F 1023.2 in NW 24.1 mph 24.1 mph 60 % 0.0 in 69.0 W/m2 FEW
17:45 11.1 °F 3.9 °F 1023.2 in NW 18.5 mph 18.5 mph 61 % 0.0 in 72.0 W/m2 FEW
17:50 11.1 °F 4.1 °F 1023.2 in NW 18.5 mph 18.5 mph 62 % 0.0 in 63.0 W/m2 SCT
17:55 11.1 °F 4.1 °F 1023.2 in NW 16.7 mph 16.7 mph 62 % 0.0 in 51.0 W/m2 SCT
18:00 11.1 °F 4.3 °F 1023.2 in NW 13.0 mph 13.0 mph 63 % 0.0 in 39.0 W/m2 BKN
18:05 11.1 °F 4.6 °F 1023.2 in NW 9.3 mph 9.3 mph 64 % 0.0 in 28.0 W/m2 BKN
18:10 11.1 °F 4.6 °F 1023.2 in NW 11.1 mph 11.1 mph 64 % 0.0 in 23.0 W/m2 BKN
18:15 11.1 °F 4.6 °F 1023.2 in NW 14.8 mph 14.8 mph 64 % 0.0 in 19.0 W/m2 BKN
18:20 11.1 °F 4.6 °F 1023.2 in WNW 16.7 mph 16.7 mph 64 % 0.0 in 14.0 W/m2 BKN
18:25 11.1 °F 4.8 °F 1023.2 in NNW 16.1 mph 16.1 mph 65 % 0.0 in 11.0 W/m2 BKN
18:30 11.1 °F 4.8 °F 1023.2 in NW 13.0 mph 13.0 mph 65 % 0.0 in 5.0 W/m2 OVC
18:35 11.1 °F 5.0 °F 1023.6 in NNW 25.9 mph 25.9 mph 66 % 0.0 in 0.0 W/m2 OVC
18:40 11.1 °F 5.0 °F 1023.6 in NNW 25.9 mph 25.9 mph 66 % 0.0 in 0.0 W/m2 OVC
18:45 11.1 °F 5.2 °F 1023.6 in NNW 27.8 mph 27.8 mph 67 % 0.0 in 0.0 W/m2 OVC
18:50 11.1 °F 5.4 °F 1023.6 in NW 22.2 mph 22.2 mph 68 % 0.0 in 0.0 W/m2 CLR
18:55 11.1 °F 5.4 °F 1023.6 in NW 25.9 mph 25.9 mph 68 % 0.0 in 0.0 W/m2 CLR
19:00 10.6 °F 4.9 °F 1023.6 in NNW 27.8 mph 27.8 mph 68 % 0.0 in 0.0 W/m2 CLR
19:05 10.6 °F 5.1 °F 1023.6 in WNW 14.8 mph 14.8 mph 69 % 0.0 in 0.0 W/m2 CLR
19:10 10.6 °F 5.1 °F 1023.6 in NW 20.4 mph 20.4 mph 69 % 0.0 in 0.0 W/m2 CLR
19:15 10.6 °F 5.3 °F 1023.6 in NW 16.1 mph 16.1 mph 70 % 0.0 in 0.0 W/m2 CLR
19:20 10.6 °F 5.3 °F 1023.6 in WNW 16.7 mph 16.7 mph 70 % 0.0 in 0.0 W/m2 CLR
19:25 10.6 °F 5.3 °F 1023.6 in WNW 17.7 mph 17.7 mph 70 % 0.0 in 0.0 W/m2 CLR
19:30 10.6 °F 5.3 °F 1023.6 in NW 18.5 mph 18.5 mph 70 % 0.0 in 0.0 W/m2 CLR
19:35 10.6 °F 5.3 °F 1023.6 in WNW 18.5 mph 18.5 mph 70 % 0.0 in 0.0 W/m2 CLR
19:40 10.6 °F 5.3 °F 1023.6 in WNW 16.7 mph 16.7 mph 70 % 0.0 in 0.0 W/m2 CLR
19:45 10.6 °F 5.3 °F 1023.6 in WNW 16.7 mph 16.7 mph 70 % 0.0 in 0.0 W/m2 CLR
19:50 10.6 °F 5.3 °F 1023.6 in WNW 16.7 mph 16.7 mph 70 % 0.0 in 0.0 W/m2 CLR
19:55 10.6 °F 5.3 °F 1023.6 in WNW 18.5 mph 18.5 mph 70 % 0.0 in 0.0 W/m2 CLR
20:00 10.6 °F 5.3 °F 1023.6 in WNW 20.4 mph 20.4 mph 70 % 0.0 in 0.0 W/m2 CLR
20:05 10.6 °F 5.5 °F 1023.6 in NW 22.2 mph 22.2 mph 71 % 0.0 in 0.0 W/m2 CLR
20:10 10.0 °F 5.0 °F 1023.6 in NW 18.5 mph 18.5 mph 71 % 0.0 in 0.0 W/m2 CLR
20:15 10.6 °F 5.5 °F 1023.6 in WNW 18.5 mph 18.5 mph 71 % 0.0 in 0.0 W/m2 CLR
20:20 10.6 °F 5.5 °F 1023.6 in WNW 16.7 mph 16.7 mph 71 % 0.0 in 0.0 W/m2 CLR
20:25 10.6 °F 5.5 °F 1023.6 in West 14.8 mph 14.8 mph 71 % 0.0 in 0.0 W/m2 CLR
20:30 10.6 °F 5.5 °F 1023.6 in WNW 16.7 mph 16.7 mph 71 % 0.0 in 0.0 W/m2 CLR
20:35 10.6 °F 5.7 °F 1023.6 in NW 18.5 mph 18.5 mph 72 % 0.0 in 0.0 W/m2 CLR
20:40 10.6 °F 5.7 °F 1023.6 in WNW 16.7 mph 16.7 mph 72 % 0.0 in 0.0 W/m2 CLR
20:45 10.6 °F 5.7 °F 1023.6 in NW 18.5 mph 18.5 mph 72 % 0.0 in 0.0 W/m2 CLR
20:50 10.0 °F 5.2 °F 1023.6 in NW 18.5 mph 18.5 mph 72 % 0.0 in 0.0 W/m2 CLR
20:55 10.0 °F 5.2 °F 1023.6 in West 1.6 mph   72 % 0.0 in 0.0 W/m2 CLR
21:00 10.0 °F 5.4 °F 1023.6 in West 16.7 mph 16.7 mph 73 % 0.0 in 0.0 W/m2 CLR
21:05 10.0 °F 5.4 °F 1023.6 in West 20.4 mph 20.4 mph 73 % 0.0 in 0.0 W/m2 CLR
21:10 10.0 °F 5.4 °F 1023.6 in WNW 9.7 mph 9.7 mph 73 % 0.0 in 0.0 W/m2 CLR
21:15 10.0 °F 5.4 °F 1023.6 in NW 14.5 mph 14.5 mph 73 % 0.0 in 0.0 W/m2 CLR
21:20 10.0 °F 5.4 °F 1023.6 in NW 18.5 mph 18.5 mph 73 % 0.0 in 0.0 W/m2 CLR
21:25 10.0 °F 5.4 °F 1023.6 in WNW 13.0 mph 13.0 mph 73 % 0.0 in 0.0 W/m2 CLR
21:30 10.0 °F 5.6 °F 1023.6 in WNW 14.8 mph 14.8 mph 74 % 0.0 in 0.0 W/m2 CLR
21:35 10.0 °F 5.6 °F 1023.2 in West 11.1 mph 11.1 mph 74 % 0.0 in 0.0 W/m2 CLR
21:40 10.0 °F 5.6 °F 1023.2 in NW 16.1 mph 16.1 mph 74 % 0.0 in 0.0 W/m2 CLR
21:45 10.0 °F 5.6 °F 1023.2 in NW 16.7 mph 16.7 mph 74 % 0.0 in 0.0 W/m2 CLR
21:50 10.0 °F 5.8 °F 1023.2 in NNW 24.1 mph 24.1 mph 75 % 0.0 in 0.0 W/m2 CLR
21:55 10.0 °F 5.9 °F 1023.2 in NW 25.7 mph 25.7 mph 76 % 0.0 in 0.0 W/m2 CLR
22:00 10.0 °F 5.9 °F 1023.2 in NNW 25.9 mph 25.9 mph 76 % 0.0 in 0.0 W/m2 CLR
22:05 10.0 °F 5.9 °F 1023.2 in NW 31.5 mph 31.5 mph 76 % 0.0 in 0.0 W/m2 CLR
22:10 9.4 °F 5.6 °F 1023.2 in NW 27.8 mph 27.8 mph 77 % 0.0 in 0.0 W/m2 CLR
22:15 9.4 °F 5.8 °F 1023.2 in NW 31.5 mph 31.5 mph 78 % 0.0 in 0.0 W/m2 CLR
22:20 9.4 °F 5.8 °F 1023.2 in NW 22.2 mph 22.2 mph 78 % 0.0 in 0.0 W/m2 CLR
22:26 9.4 °F 5.8 °F 1023.2 in NW 18.5 mph 18.5 mph 78 % 0.0 in 0.0 W/m2 CLR
22:31 9.4 °F 5.6 °F 1023.2 in NW 22.2 mph 22.2 mph 77 % 0.0 in 0.0 W/m2 CLR
22:36 9.4 °F 5.6 °F 1023.2 in NW 20.4 mph 20.4 mph 77 % 0.0 in 0.0 W/m2 CLR
22:41 9.4 °F 5.6 °F 1023.2 in NW 22.2 mph 22.2 mph 77 % 0.0 in 0.0 W/m2 CLR
22:46 9.4 °F 5.4 °F 1023.2 in NW 22.2 mph 22.2 mph 76 % 0.0 in 0.0 W/m2 CLR
22:51 9.4 °F 5.4 °F 1022.9 in NW 20.4 mph 20.4 mph 76 % 0.0 in 0.0 W/m2 CLR
22:56 9.4 °F 5.6 °F 1022.9 in NW 18.5 mph 18.5 mph 77 % 0.0 in 0.0 W/m2 CLR
23:01 9.4 °F 5.6 °F 1022.9 in NW 18.5 mph 18.5 mph 77 % 0.0 in 0.0 W/m2 CLR
23:06 9.4 °F 5.6 °F 1022.9 in NW 20.9 mph 20.9 mph 77 % 0.0 in 0.0 W/m2 CLR
23:11 9.4 °F 5.6 °F 1022.9 in NW 24.1 mph 24.1 mph 77 % 0.0 in 0.0 W/m2 CLR
23:16 9.4 °F 5.6 °F 1022.9 in NW 22.5 mph 22.5 mph 77 % 0.0 in 0.0 W/m2 CLR
23:21 9.4 °F 5.6 °F 1022.9 in WNW 18.5 mph 18.5 mph 77 % 0.0 in 0.0 W/m2 CLR
23:26 9.4 °F 5.8 °F 1022.9 in WNW 20.4 mph 20.4 mph 78 % 0.0 in 0.0 W/m2 CLR
23:31 9.4 °F 5.6 °F 1022.9 in NW 18.5 mph 18.5 mph 77 % 0.0 in 0.0 W/m2 CLR
23:36 9.4 °F 5.6 °F 1022.9 in NW 18.5 mph 18.5 mph 77 % 0.0 in 0.0 W/m2 CLR
23:41 8.9 °F 5.1 °F 1022.6 in WNW 17.7 mph 17.7 mph 77 % 0.0 in 0.0 W/m2 CLR
23:46 8.9 °F 5.1 °F 1022.6 in West 12.9 mph 12.9 mph 77 % 0.0 in 0.0 W/m2 CLR
23:51 8.9 °F 5.1 °F 1022.6 in WNW 18.5 mph 18.5 mph 77 % 0.0 in 0.0 W/m2 CLR
23:56 8.9 °F 5.1 °F 1022.9 in WNW 14.8 mph 14.8 mph 77 % 0.0 in 0.0 W/m2 CLR
Lo Temps de Massalio
Compliments of Weather Underground - 1.25 mb